sensor_id;sensor_type;location;lat;lon;timestamp;P1;durP1;ratioP1;P2;durP2;ratioP2
37559;SDS011;23398;50.928;7.084;2023-07-09T00:02:25;4.63;;;3.50;;
37559;SDS011;23398;50.928;7.084;2023-07-09T00:04:51;4.28;;;3.40;;
37559;SDS011;23398;50.928;7.084;2023-07-09T00:07:18;3.40;;;3.00;;
37559;SDS011;23398;50.928;7.084;2023-07-09T00:09:53;4.95;;;3.22;;
37559;SDS011;23398;50.928;7.084;2023-07-09T00:12:19;3.70;;;3.30;;
37559;SDS011;23398;50.928;7.084;2023-07-09T00:14:45;4.25;;;3.42;;
37559;SDS011;23398;50.928;7.084;2023-07-09T00:17:11;4.75;;;3.47;;
37559;SDS011;23398;50.928;7.084;2023-07-09T00:19:44;4.07;;;3.20;;
37559;SDS011;23398;50.928;7.084;2023-07-09T00:22:14;3.45;;;3.13;;
37559;SDS011;23398;50.928;7.084;2023-07-09T00:24:42;4.32;;;3.35;;
37559;SDS011;23398;50.928;7.084;2023-07-09T00:27:09;5.97;;;3.40;;
37559;SDS011;23398;50.928;7.084;2023-07-09T00:29:36;3.90;;;3.25;;
37559;SDS011;23398;50.928;7.084;2023-07-09T00:32:02;4.40;;;3.53;;
37559;SDS011;23398;50.928;7.084;2023-07-09T00:34:27;4.38;;;3.38;;
37559;SDS011;23398;50.928;7.084;2023-07-09T00:36:53;4.88;;;3.75;;
37559;SDS011;23398;50.928;7.084;2023-07-09T00:39:20;5.40;;;3.60;;
37559;SDS011;23398;50.928;7.084;2023-07-09T00:41:47;5.03;;;3.60;;
37559;SDS011;23398;50.928;7.084;2023-07-09T00:49:48;5.22;;;3.60;;
37559;SDS011;23398;50.928;7.084;2023-07-09T00:52:27;4.70;;;3.30;;
37559;SDS011;23398;50.928;7.084;2023-07-09T00:55:00;5.32;;;3.50;;
37559;SDS011;23398;50.928;7.084;2023-07-09T00:57:31;3.90;;;3.38;;
37559;SDS011;23398;50.928;7.084;2023-07-09T00:59:58;4.28;;;3.55;;
37559;SDS011;23398;50.928;7.084;2023-07-09T01:02:34;3.97;;;3.33;;
37559;SDS011;23398;50.928;7.084;2023-07-09T01:05:10;4.05;;;3.50;;
37559;SDS011;23398;50.928;7.084;2023-07-09T01:07:37;5.68;;;3.67;;
37559;SDS011;23398;50.928;7.084;2023-07-09T01:10:03;3.90;;;3.42;;
37559;SDS011;23398;50.928;7.084;2023-07-09T01:12:29;5.55;;;3.90;;
37559;SDS011;23398;50.928;7.084;2023-07-09T01:14:56;4.32;;;3.63;;
37559;SDS011;23398;50.928;7.084;2023-07-09T01:17:24;4.35;;;3.70;;
37559;SDS011;23398;50.928;7.084;2023-07-09T01:19:53;4.65;;;3.65;;
37559;SDS011;23398;50.928;7.084;2023-07-09T01:22:19;3.85;;;3.45;;
37559;SDS011;23398;50.928;7.084;2023-07-09T01:25:07;4.07;;;3.67;;
37559;SDS011;23398;50.928;7.084;2023-07-09T01:30:13;4.18;;;3.38;;
37559;SDS011;23398;50.928;7.084;2023-07-09T01:32:40;4.07;;;3.38;;
37559;SDS011;23398;50.928;7.084;2023-07-09T01:35:11;4.32;;;3.45;;
37559;SDS011;23398;50.928;7.084;2023-07-09T01:37:40;4.35;;;3.95;;
37559;SDS011;23398;50.928;7.084;2023-07-09T01:40:07;4.32;;;3.90;;
37559;SDS011;23398;50.928;7.084;2023-07-09T01:42:34;4.10;;;3.60;;
37559;SDS011;23398;50.928;7.084;2023-07-09T01:45:04;4.18;;;3.47;;
37559;SDS011;23398;50.928;7.084;2023-07-09T01:47:30;5.22;;;3.92;;
37559;SDS011;23398;50.928;7.084;2023-07-09T01:49:56;6.65;;;4.05;;
37559;SDS011;23398;50.928;7.084;2023-07-09T01:52:23;3.60;;;3.30;;
37559;SDS011;23398;50.928;7.084;2023-07-09T01:54:55;4.63;;;3.80;;
37559;SDS011;23398;50.928;7.084;2023-07-09T01:57:27;4.50;;;3.95;;
37559;SDS011;23398;50.928;7.084;2023-07-09T01:59:58;4.40;;;3.78;;
37559;SDS011;23398;50.928;7.084;2023-07-09T02:02:26;4.32;;;3.50;;
37559;SDS011;23398;50.928;7.084;2023-07-09T02:04:53;4.75;;;3.67;;
37559;SDS011;23398;50.928;7.084;2023-07-09T02:07:21;5.05;;;3.83;;
37559;SDS011;23398;50.928;7.084;2023-07-09T02:09:48;4.95;;;3.88;;
37559;SDS011;23398;50.928;7.084;2023-07-09T02:12:14;4.35;;;3.63;;
37559;SDS011;23398;50.928;7.084;2023-07-09T02:14:41;5.80;;;3.92;;
37559;SDS011;23398;50.928;7.084;2023-07-09T02:17:08;4.75;;;3.92;;
37559;SDS011;23398;50.928;7.084;2023-07-09T02:19:35;4.18;;;3.50;;
37559;SDS011;23398;50.928;7.084;2023-07-09T02:22:01;4.10;;;3.50;;
37559;SDS011;23398;50.928;7.084;2023-07-09T02:24:26;4.13;;;3.45;;
37559;SDS011;23398;50.928;7.084;2023-07-09T02:26:55;4.90;;;3.75;;
37559;SDS011;23398;50.928;7.084;2023-07-09T02:29:22;4.57;;;3.47;;
37559;SDS011;23398;50.928;7.084;2023-07-09T02:31:50;4.20;;;3.40;;
37559;SDS011;23398;50.928;7.084;2023-07-09T02:34:17;4.60;;;3.60;;
37559;SDS011;23398;50.928;7.084;2023-07-09T02:36:43;4.95;;;3.78;;
37559;SDS011;23398;50.928;7.084;2023-07-09T02:39:10;4.32;;;3.92;;
37559;SDS011;23398;50.928;7.084;2023-07-09T02:41:36;5.43;;;3.80;;
37559;SDS011;23398;50.928;7.084;2023-07-09T02:44:02;4.25;;;3.50;;
37559;SDS011;23398;50.928;7.084;2023-07-09T02:46:28;4.00;;;3.60;;
37559;SDS011;23398;50.928;7.084;2023-07-09T02:48:53;6.20;;;4.13;;
37559;SDS011;23398;50.928;7.084;2023-07-09T02:51:19;5.47;;;3.90;;
37559;SDS011;23398;50.928;7.084;2023-07-09T02:53:45;3.70;;;3.30;;
37559;SDS011;23398;50.928;7.084;2023-07-09T02:56:10;3.95;;;3.55;;
37559;SDS011;23398;50.928;7.084;2023-07-09T02:58:36;4.13;;;3.60;;
37559;SDS011;23398;50.928;7.084;2023-07-09T03:01:02;4.93;;;3.88;;
37559;SDS011;23398;50.928;7.084;2023-07-09T03:03:28;4.10;;;3.67;;
37559;SDS011;23398;50.928;7.084;2023-07-09T03:05:54;4.68;;;3.45;;
37559;SDS011;23398;50.928;7.084;2023-07-09T03:08:19;5.68;;;3.63;;
37559;SDS011;23398;50.928;7.084;2023-07-09T03:10:45;4.63;;;3.88;;
37559;SDS011;23398;50.928;7.084;2023-07-09T03:13:10;4.10;;;3.67;;
37559;SDS011;23398;50.928;7.084;2023-07-09T03:15:36;4.28;;;3.38;;
37559;SDS011;23398;50.928;7.084;2023-07-09T03:18:01;4.90;;;3.78;;
37559;SDS011;23398;50.928;7.084;2023-07-09T03:20:27;4.63;;;3.80;;
37559;SDS011;23398;50.928;7.084;2023-07-09T03:22:53;10.15;;;3.92;;
37559;SDS011;23398;50.928;7.084;2023-07-09T03:25:18;4.13;;;3.55;;
37559;SDS011;23398;50.928;7.084;2023-07-09T03:27:46;4.18;;;3.78;;
37559;SDS011;23398;50.928;7.084;2023-07-09T03:30:13;4.60;;;3.60;;
37559;SDS011;23398;50.928;7.084;2023-07-09T03:32:38;4.10;;;3.70;;
37559;SDS011;23398;50.928;7.084;2023-07-09T03:35:04;5.25;;;4.10;;
37559;SDS011;23398;50.928;7.084;2023-07-09T03:37:30;4.70;;;3.85;;
37559;SDS011;23398;50.928;7.084;2023-07-09T03:39:55;5.38;;;3.67;;
37559;SDS011;23398;50.928;7.084;2023-07-09T03:42:21;5.45;;;3.95;;
37559;SDS011;23398;50.928;7.084;2023-07-09T03:44:46;3.92;;;3.45;;
37559;SDS011;23398;50.928;7.084;2023-07-09T03:47:12;4.45;;;3.40;;
37559;SDS011;23398;50.928;7.084;2023-07-09T03:49:38;3.92;;;3.53;;
37559;SDS011;23398;50.928;7.084;2023-07-09T03:52:03;3.95;;;3.20;;
37559;SDS011;23398;50.928;7.084;2023-07-09T03:54:29;5.15;;;3.42;;
37559;SDS011;23398;50.928;7.084;2023-07-09T03:56:55;3.85;;;3.38;;
37559;SDS011;23398;50.928;7.084;2023-07-09T03:59:20;4.22;;;3.45;;
37559;SDS011;23398;50.928;7.084;2023-07-09T04:01:46;5.63;;;3.60;;
37559;SDS011;23398;50.928;7.084;2023-07-09T04:04:12;5.15;;;3.60;;
37559;SDS011;23398;50.928;7.084;2023-07-09T04:06:38;4.60;;;3.70;;
37559;SDS011;23398;50.928;7.084;2023-07-09T04:09:04;4.05;;;3.58;;
37559;SDS011;23398;50.928;7.084;2023-07-09T04:11:30;4.13;;;3.70;;
37559;SDS011;23398;50.928;7.084;2023-07-09T04:13:55;4.65;;;4.10;;
37559;SDS011;23398;50.928;7.084;2023-07-09T04:16:21;5.10;;;3.63;;
37559;SDS011;23398;50.928;7.084;2023-07-09T04:18:46;4.97;;;3.47;;
37559;SDS011;23398;50.928;7.084;2023-07-09T04:21:12;4.57;;;3.78;;
37559;SDS011;23398;50.928;7.084;2023-07-09T04:23:38;4.07;;;3.55;;
37559;SDS011;23398;50.928;7.084;2023-07-09T04:26:03;5.18;;;4.13;;
37559;SDS011;23398;50.928;7.084;2023-07-09T04:28:30;5.03;;;3.67;;
37559;SDS011;23398;50.928;7.084;2023-07-09T04:30:56;4.82;;;3.78;;
37559;SDS011;23398;50.928;7.084;2023-07-09T04:33:21;5.03;;;3.88;;
37559;SDS011;23398;50.928;7.084;2023-07-09T04:35:47;5.07;;;3.53;;
37559;SDS011;23398;50.928;7.084;2023-07-09T04:38:14;5.55;;;3.70;;
37559;SDS011;23398;50.928;7.084;2023-07-09T04:40:40;5.00;;;4.10;;
37559;SDS011;23398;50.928;7.084;2023-07-09T04:43:06;4.75;;;3.88;;
37559;SDS011;23398;50.928;7.084;2023-07-09T04:45:32;4.25;;;3.85;;
37559;SDS011;23398;50.928;7.084;2023-07-09T04:47:58;6.75;;;4.00;;
37559;SDS011;23398;50.928;7.084;2023-07-09T04:50:23;4.10;;;3.70;;
37559;SDS011;23398;50.928;7.084;2023-07-09T04:52:49;4.28;;;3.80;;
37559;SDS011;23398;50.928;7.084;2023-07-09T04:55:14;3.80;;;3.40;;
37559;SDS011;23398;50.928;7.084;2023-07-09T04:57:43;4.85;;;4.00;;
37559;SDS011;23398;50.928;7.084;2023-07-09T05:00:10;4.13;;;3.72;;
37559;SDS011;23398;50.928;7.084;2023-07-09T05:02:36;4.75;;;3.60;;
37559;SDS011;23398;50.928;7.084;2023-07-09T05:05:01;4.32;;;3.53;;
37559;SDS011;23398;50.928;7.084;2023-07-09T05:07:27;4.53;;;3.60;;
37559;SDS011;23398;50.928;7.084;2023-07-09T05:09:53;4.05;;;3.65;;
37559;SDS011;23398;50.928;7.084;2023-07-09T05:12:18;3.90;;;3.50;;
37559;SDS011;23398;50.928;7.084;2023-07-09T05:14:45;4.32;;;3.42;;
37559;SDS011;23398;50.928;7.084;2023-07-09T05:17:11;3.45;;;3.13;;
37559;SDS011;23398;50.928;7.084;2023-07-09T05:19:37;4.07;;;3.38;;
37559;SDS011;23398;50.928;7.084;2023-07-09T05:22:03;5.38;;;3.88;;
37559;SDS011;23398;50.928;7.084;2023-07-09T05:24:28;4.93;;;3.75;;
37559;SDS011;23398;50.928;7.084;2023-07-09T05:26:54;3.92;;;3.53;;
37559;SDS011;23398;50.928;7.084;2023-07-09T05:29:20;4.18;;;3.60;;
37559;SDS011;23398;50.928;7.084;2023-07-09T05:31:46;4.75;;;3.72;;
37559;SDS011;23398;50.928;7.084;2023-07-09T05:34:12;4.75;;;3.75;;
37559;SDS011;23398;50.928;7.084;2023-07-09T05:36:37;4.25;;;3.35;;
37559;SDS011;23398;50.928;7.084;2023-07-09T05:39:04;4.32;;;3.33;;
37559;SDS011;23398;50.928;7.084;2023-07-09T05:41:29;4.43;;;3.30;;
37559;SDS011;23398;50.928;7.084;2023-07-09T05:43:55;6.93;;;4.20;;
37559;SDS011;23398;50.928;7.084;2023-07-09T05:46:21;3.92;;;3.47;;
37559;SDS011;23398;50.928;7.084;2023-07-09T05:48:47;3.75;;;3.38;;
37559;SDS011;23398;50.928;7.084;2023-07-09T05:51:13;3.55;;;3.20;;
37559;SDS011;23398;50.928;7.084;2023-07-09T05:53:39;3.95;;;3.55;;
37559;SDS011;23398;50.928;7.084;2023-07-09T05:56:05;3.92;;;3.55;;
37559;SDS011;23398;50.928;7.084;2023-07-09T05:58:30;4.70;;;3.47;;
37559;SDS011;23398;50.928;7.084;2023-07-09T06:00:56;4.30;;;3.42;;
37559;SDS011;23398;50.928;7.084;2023-07-09T06:03:23;3.85;;;3.10;;
37559;SDS011;23398;50.928;7.084;2023-07-09T06:05:51;4.20;;;3.53;;
37559;SDS011;23398;50.928;7.084;2023-07-09T06:08:18;4.05;;;3.50;;
37559;SDS011;23398;50.928;7.084;2023-07-09T06:11:02;5.13;;;3.33;;
37559;SDS011;23398;50.928;7.084;2023-07-09T06:13:29;4.70;;;3.55;;
37559;SDS011;23398;50.928;7.084;2023-07-09T06:15:56;5.28;;;4.00;;
37559;SDS011;23398;50.928;7.084;2023-07-09T06:18:22;4.20;;;3.30;;
37559;SDS011;23398;50.928;7.084;2023-07-09T06:20:53;6.03;;;3.80;;
37559;SDS011;23398;50.928;7.084;2023-07-09T06:23:20;5.43;;;3.80;;
37559;SDS011;23398;50.928;7.084;2023-07-09T06:25:46;4.25;;;3.53;;
37559;SDS011;23398;50.928;7.084;2023-07-09T06:28:16;3.28;;;2.97;;
37559;SDS011;23398;50.928;7.084;2023-07-09T06:30:46;6.45;;;3.90;;
37559;SDS011;23398;50.928;7.084;2023-07-09T06:33:13;4.90;;;3.63;;
37559;SDS011;23398;50.928;7.084;2023-07-09T06:35:45;3.70;;;3.30;;
37559;SDS011;23398;50.928;7.084;2023-07-09T06:38:21;3.45;;;2.83;;
37559;SDS011;23398;50.928;7.084;2023-07-09T06:40:47;4.30;;;3.22;;
37559;SDS011;23398;50.928;7.084;2023-07-09T06:43:13;3.88;;;3.13;;
37559;SDS011;23398;50.928;7.084;2023-07-09T06:45:39;5.20;;;3.38;;
37559;SDS011;23398;50.928;7.084;2023-07-09T06:48:13;4.28;;;3.00;;
37559;SDS011;23398;50.928;7.084;2023-07-09T06:50:38;3.33;;;3.00;;
37559;SDS011;23398;50.928;7.084;2023-07-09T06:53:04;3.58;;;3.28;;
37559;SDS011;23398;50.928;7.084;2023-07-09T06:55:29;3.72;;;3.13;;
37559;SDS011;23398;50.928;7.084;2023-07-09T06:57:56;6.18;;;3.30;;
37559;SDS011;23398;50.928;7.084;2023-07-09T07:00:22;3.92;;;3.40;;
37559;SDS011;23398;50.928;7.084;2023-07-09T07:02:47;3.20;;;2.90;;
37559;SDS011;23398;50.928;7.084;2023-07-09T07:05:13;3.47;;;2.92;;
37559;SDS011;23398;50.928;7.084;2023-07-09T07:07:38;3.38;;;2.88;;
37559;SDS011;23398;50.928;7.084;2023-07-09T07:10:04;3.50;;;3.15;;
37559;SDS011;23398;50.928;7.084;2023-07-09T07:12:39;3.42;;;2.80;;
37559;SDS011;23398;50.928;7.084;2023-07-09T07:15:07;3.85;;;3.05;;
37559;SDS011;23398;50.928;7.084;2023-07-09T07:17:33;4.28;;;2.88;;
37559;SDS011;23398;50.928;7.084;2023-07-09T07:19:58;3.47;;;3.17;;
37559;SDS011;23398;50.928;7.084;2023-07-09T07:22:24;4.07;;;3.30;;
37559;SDS011;23398;50.928;7.084;2023-07-09T07:24:49;4.13;;;3.17;;
37559;SDS011;23398;50.928;7.084;2023-07-09T07:27:15;4.00;;;3.25;;
37559;SDS011;23398;50.928;7.084;2023-07-09T07:29:40;3.33;;;3.00;;
37559;SDS011;23398;50.928;7.084;2023-07-09T07:32:06;3.15;;;2.83;;
37559;SDS011;23398;50.928;7.084;2023-07-09T07:34:32;3.40;;;3.10;;
37559;SDS011;23398;50.928;7.084;2023-07-09T07:36:58;3.30;;;3.00;;
37559;SDS011;23398;50.928;7.084;2023-07-09T07:39:23;3.58;;;2.85;;
37559;SDS011;23398;50.928;7.084;2023-07-09T07:41:49;3.05;;;2.85;;
37559;SDS011;23398;50.928;7.084;2023-07-09T07:44:15;4.47;;;3.10;;
37559;SDS011;23398;50.928;7.084;2023-07-09T07:46:41;3.28;;;2.97;;
37559;SDS011;23398;50.928;7.084;2023-07-09T07:49:07;3.40;;;2.97;;
37559;SDS011;23398;50.928;7.084;2023-07-09T07:51:33;4.60;;;3.20;;
37559;SDS011;23398;50.928;7.084;2023-07-09T07:53:59;3.33;;;2.90;;
37559;SDS011;23398;50.928;7.084;2023-07-09T07:56:24;3.83;;;2.97;;
37559;SDS011;23398;50.928;7.084;2023-07-09T07:58:50;3.97;;;3.20;;
37559;SDS011;23398;50.928;7.084;2023-07-09T08:01:16;3.25;;;3.00;;
37559;SDS011;23398;50.928;7.084;2023-07-09T08:03:42;3.50;;;3.20;;
37559;SDS011;23398;50.928;7.084;2023-07-09T08:06:07;3.90;;;2.72;;
37559;SDS011;23398;50.928;7.084;2023-07-09T08:08:33;3.78;;;3.40;;
37559;SDS011;23398;50.928;7.084;2023-07-09T08:11:05;3.05;;;2.75;;
37559;SDS011;23398;50.928;7.084;2023-07-09T08:13:36;3.33;;;3.03;;
37559;SDS011;23398;50.928;7.084;2023-07-09T08:16:03;3.33;;;3.05;;
37559;SDS011;23398;50.928;7.084;2023-07-09T08:18:30;3.65;;;3.03;;
37559;SDS011;23398;50.928;7.084;2023-07-09T08:20:55;3.95;;;3.42;;
37559;SDS011;23398;50.928;7.084;2023-07-09T08:23:21;3.50;;;3.15;;
37559;SDS011;23398;50.928;7.084;2023-07-09T08:25:53;4.50;;;3.05;;
37559;SDS011;23398;50.928;7.084;2023-07-09T08:28:20;3.40;;;3.10;;
37559;SDS011;23398;50.928;7.084;2023-07-09T08:30:46;3.95;;;3.47;;
37559;SDS011;23398;50.928;7.084;2023-07-09T08:33:11;3.42;;;3.13;;
37559;SDS011;23398;50.928;7.084;2023-07-09T08:35:37;3.72;;;3.25;;
37559;SDS011;23398;50.928;7.084;2023-07-09T08:38:03;3.38;;;3.15;;
37559;SDS011;23398;50.928;7.084;2023-07-09T08:40:29;3.45;;;3.22;;
37559;SDS011;23398;50.928;7.084;2023-07-09T08:42:57;5.78;;;3.58;;
37559;SDS011;23398;50.928;7.084;2023-07-09T08:48:09;4.28;;;3.60;;
37559;SDS011;23398;50.928;7.084;2023-07-09T08:50:54;4.88;;;3.53;;
37559;SDS011;23398;50.928;7.084;2023-07-09T08:53:32;3.85;;;3.55;;
37559;SDS011;23398;50.928;7.084;2023-07-09T08:56:01;4.00;;;3.70;;
37559;SDS011;23398;50.928;7.084;2023-07-09T08:58:28;3.80;;;3.50;;
37559;SDS011;23398;50.928;7.084;2023-07-09T09:00:56;3.70;;;3.40;;
37559;SDS011;23398;50.928;7.084;2023-07-09T09:03:37;4.45;;;3.88;;
37559;SDS011;23398;50.928;7.084;2023-07-09T09:06:10;4.15;;;3.85;;
37559;SDS011;23398;50.928;7.084;2023-07-09T09:08:49;3.75;;;3.45;;
37559;SDS011;23398;50.928;7.084;2023-07-09T09:14:15;5.35;;;3.63;;
37559;SDS011;23398;50.928;7.084;2023-07-09T09:16:48;3.80;;;3.42;;
37559;SDS011;23398;50.928;7.084;2023-07-09T09:19:18;3.88;;;3.55;;
37559;SDS011;23398;50.928;7.084;2023-07-09T09:22:10;4.13;;;3.60;;
37559;SDS011;23398;50.928;7.084;2023-07-09T09:27:23;3.97;;;3.58;;
37559;SDS011;23398;50.928;7.084;2023-07-09T09:29:48;3.70;;;3.40;;
37559;SDS011;23398;50.928;7.084;2023-07-09T09:32:37;3.72;;;3.42;;
37559;SDS011;23398;50.928;7.084;2023-07-09T09:35:12;3.78;;;3.47;;
37559;SDS011;23398;50.928;7.084;2023-07-09T09:37:40;4.28;;;3.60;;
37559;SDS011;23398;50.928;7.084;2023-07-09T09:40:08;4.28;;;3.88;;
37559;SDS011;23398;50.928;7.084;2023-07-09T09:42:34;4.10;;;3.80;;
37559;SDS011;23398;50.928;7.084;2023-07-09T09:45:00;4.18;;;3.75;;
37559;SDS011;23398;50.928;7.084;2023-07-09T09:47:27;4.80;;;4.25;;
37559;SDS011;23398;50.928;7.084;2023-07-09T09:49:55;4.25;;;3.85;;
37559;SDS011;23398;50.928;7.084;2023-07-09T09:52:24;4.28;;;3.90;;
37559;SDS011;23398;50.928;7.084;2023-07-09T09:54:55;5.47;;;3.67;;
37559;SDS011;23398;50.928;7.084;2023-07-09T09:57:30;4.25;;;3.85;;
37559;SDS011;23398;50.928;7.084;2023-07-09T09:59:55;4.35;;;4.00;;
37559;SDS011;23398;50.928;7.084;2023-07-09T10:02:22;4.57;;;4.13;;
37559;SDS011;23398;50.928;7.084;2023-07-09T10:04:49;5.18;;;4.30;;
37559;SDS011;23398;50.928;7.084;2023-07-09T10:07:32;4.30;;;3.90;;
37559;SDS011;23398;50.928;7.084;2023-07-09T10:10:08;4.03;;;3.72;;
37559;SDS011;23398;50.928;7.084;2023-07-09T10:21:26;3.72;;;3.42;;
37559;SDS011;23398;50.928;7.084;2023-07-09T10:24:28;4.15;;;3.55;;
37559;SDS011;23398;50.928;7.084;2023-07-09T10:41:04;3.90;;;3.60;;
37559;SDS011;23398;50.928;7.084;2023-07-09T10:43:41;4.10;;;3.80;;
37559;SDS011;23398;50.928;7.084;2023-07-09T10:46:13;4.00;;;3.70;;
37559;SDS011;23398;50.928;7.084;2023-07-09T10:48:45;3.60;;;3.30;;
37559;SDS011;23398;50.928;7.084;2023-07-09T10:53:54;3.60;;;3.08;;
37559;SDS011;23398;50.928;7.084;2023-07-09T10:56:24;4.82;;;3.03;;
37559;SDS011;23398;50.928;7.084;2023-07-09T11:01:44;3.78;;;2.90;;
37559;SDS011;23398;50.928;7.084;2023-07-09T11:04:33;5.03;;;2.90;;
37559;SDS011;23398;50.928;7.084;2023-07-09T11:07:06;3.10;;;2.80;;
37559;SDS011;23398;50.928;7.084;2023-07-09T11:09:40;2.92;;;2.72;;
37559;SDS011;23398;50.928;7.084;2023-07-09T11:12:13;3.28;;;2.80;;
37559;SDS011;23398;50.928;7.084;2023-07-09T11:14:45;3.95;;;2.78;;
37559;SDS011;23398;50.928;7.084;2023-07-09T11:17:13;3.95;;;3.00;;
37559;SDS011;23398;50.928;7.084;2023-07-09T11:19:46;3.35;;;3.08;;
37559;SDS011;23398;50.928;7.084;2023-07-09T11:22:15;3.97;;;3.20;;
37559;SDS011;23398;50.928;7.084;2023-07-09T11:24:51;3.78;;;2.95;;
37559;SDS011;23398;50.928;7.084;2023-07-09T11:27:25;3.05;;;2.80;;
37559;SDS011;23398;50.928;7.084;2023-07-09T11:29:56;5.40;;;3.10;;
37559;SDS011;23398;50.928;7.084;2023-07-09T11:32:25;4.30;;;2.92;;
37559;SDS011;23398;50.928;7.084;2023-07-09T11:34:51;3.30;;;2.90;;
37559;SDS011;23398;50.928;7.084;2023-07-09T11:37:17;4.03;;;2.88;;
37559;SDS011;23398;50.928;7.084;2023-07-09T11:39:44;3.15;;;2.88;;
37559;SDS011;23398;50.928;7.084;2023-07-09T11:44:49;5.10;;;3.25;;
37559;SDS011;23398;50.928;7.084;2023-07-09T11:47:20;3.45;;;2.92;;
37559;SDS011;23398;50.928;7.084;2023-07-09T11:52:28;5.15;;;2.97;;
37559;SDS011;23398;50.928;7.084;2023-07-09T11:55:02;4.43;;;3.03;;
37559;SDS011;23398;50.928;7.084;2023-07-09T11:57:47;4.05;;;2.90;;
37559;SDS011;23398;50.928;7.084;2023-07-09T12:00:14;4.32;;;2.90;;
37559;SDS011;23398;50.928;7.084;2023-07-09T12:02:40;3.45;;;3.15;;
37559;SDS011;23398;50.928;7.084;2023-07-09T12:05:06;4.70;;;2.78;;
37559;SDS011;23398;50.928;7.084;2023-07-09T12:07:32;5.15;;;3.10;;
37559;SDS011;23398;50.928;7.084;2023-07-09T12:09:59;2.97;;;2.70;;
37559;SDS011;23398;50.928;7.084;2023-07-09T12:12:29;3.90;;;2.80;;
37559;SDS011;23398;50.928;7.084;2023-07-09T12:14:54;3.55;;;2.90;;
37559;SDS011;23398;50.928;7.084;2023-07-09T12:17:23;5.40;;;2.72;;
37559;SDS011;23398;50.928;7.084;2023-07-09T12:19:51;4.93;;;2.90;;
37559;SDS011;23398;50.928;7.084;2023-07-09T12:22:20;2.85;;;2.55;;
37559;SDS011;23398;50.928;7.084;2023-07-09T12:24:48;2.95;;;2.42;;
37559;SDS011;23398;50.928;7.084;2023-07-09T12:29:43;3.95;;;2.70;;
37559;SDS011;23398;50.928;7.084;2023-07-09T12:32:11;3.47;;;2.80;;
37559;SDS011;23398;50.928;7.084;2023-07-09T12:34:38;3.40;;;2.60;;
37559;SDS011;23398;50.928;7.084;2023-07-09T12:37:04;2.78;;;2.42;;
37559;SDS011;23398;50.928;7.084;2023-07-09T12:39:31;3.42;;;2.83;;
37559;SDS011;23398;50.928;7.084;2023-07-09T12:42:01;2.97;;;2.53;;
37559;SDS011;23398;50.928;7.084;2023-07-09T12:44:29;5.97;;;3.05;;
37559;SDS011;23398;50.928;7.084;2023-07-09T12:46:56;3.58;;;2.55;;
37559;SDS011;23398;50.928;7.084;2023-07-09T12:49:27;2.97;;;2.70;;
37559;SDS011;23398;50.928;7.084;2023-07-09T12:51:54;4.22;;;2.60;;
37559;SDS011;23398;50.928;7.084;2023-07-09T12:54:27;3.22;;;2.80;;
37559;SDS011;23398;50.928;7.084;2023-07-09T12:56:54;4.38;;;2.78;;
37559;SDS011;23398;50.928;7.084;2023-07-09T12:59:21;3.67;;;2.67;;
37559;SDS011;23398;50.928;7.084;2023-07-09T13:02:02;3.38;;;2.72;;
37559;SDS011;23398;50.928;7.084;2023-07-09T13:04:41;2.95;;;2.65;;
37559;SDS011;23398;50.928;7.084;2023-07-09T13:09:52;4.07;;;3.00;;
37559;SDS011;23398;50.928;7.084;2023-07-09T13:12:20;3.55;;;3.25;;
37559;SDS011;23398;50.928;7.084;2023-07-09T13:14:52;3.75;;;2.90;;
37559;SDS011;23398;50.928;7.084;2023-07-09T13:17:19;2.85;;;2.63;;
37559;SDS011;23398;50.928;7.084;2023-07-09T13:19:45;3.42;;;2.80;;
37559;SDS011;23398;50.928;7.084;2023-07-09T13:22:14;3.25;;;2.95;;
37559;SDS011;23398;50.928;7.084;2023-07-09T13:24:42;4.82;;;3.13;;
37559;SDS011;23398;50.928;7.084;2023-07-09T13:27:14;3.45;;;2.80;;
37559;SDS011;23398;50.928;7.084;2023-07-09T13:29:40;3.75;;;3.05;;
37559;SDS011;23398;50.928;7.084;2023-07-09T13:32:10;3.38;;;2.70;;
37559;SDS011;23398;50.928;7.084;2023-07-09T13:34:36;4.45;;;2.88;;
37559;SDS011;23398;50.928;7.084;2023-07-09T13:37:04;4.43;;;2.88;;
37559;SDS011;23398;50.928;7.084;2023-07-09T13:39:30;4.38;;;2.95;;
37559;SDS011;23398;50.928;7.084;2023-07-09T13:41:56;5.10;;;3.10;;
37559;SDS011;23398;50.928;7.084;2023-07-09T13:44:27;3.47;;;2.90;;
37559;SDS011;23398;50.928;7.084;2023-07-09T13:46:54;4.60;;;2.75;;
37559;SDS011;23398;50.928;7.084;2023-07-09T13:49:21;4.70;;;3.20;;
37559;SDS011;23398;50.928;7.084;2023-07-09T13:51:49;5.35;;;2.97;;
37559;SDS011;23398;50.928;7.084;2023-07-09T13:54:27;5.38;;;2.90;;
37559;SDS011;23398;50.928;7.084;2023-07-09T13:57:03;3.15;;;2.85;;
37559;SDS011;23398;50.928;7.084;2023-07-09T13:59:30;3.47;;;2.60;;
37559;SDS011;23398;50.928;7.084;2023-07-09T14:01:57;4.85;;;3.60;;
37559;SDS011;23398;50.928;7.084;2023-07-09T14:04:24;9.93;;;3.03;;
37559;SDS011;23398;50.928;7.084;2023-07-09T14:06:51;5.18;;;2.72;;
37559;SDS011;23398;50.928;7.084;2023-07-09T14:09:17;4.50;;;2.70;;
37559;SDS011;23398;50.928;7.084;2023-07-09T14:11:47;4.75;;;2.90;;
37559;SDS011;23398;50.928;7.084;2023-07-09T14:16:39;3.63;;;2.80;;
37559;SDS011;23398;50.928;7.084;2023-07-09T14:19:08;3.83;;;2.60;;
37559;SDS011;23398;50.928;7.084;2023-07-09T14:21:38;4.13;;;2.50;;
37559;SDS011;23398;50.928;7.084;2023-07-09T14:24:23;3.35;;;2.40;;
37559;SDS011;23398;50.928;7.084;2023-07-09T14:26:51;3.80;;;2.70;;
37559;SDS011;23398;50.928;7.084;2023-07-09T14:29:20;4.07;;;2.88;;
37559;SDS011;23398;50.928;7.084;2023-07-09T14:31:46;3.40;;;2.30;;
37559;SDS011;23398;50.928;7.084;2023-07-09T14:34:22;3.58;;;2.80;;
37559;SDS011;23398;50.928;7.084;2023-07-09T14:36:54;5.63;;;2.83;;
37559;SDS011;23398;50.928;7.084;2023-07-09T14:39:21;5.72;;;2.65;;
37559;SDS011;23398;50.928;7.084;2023-07-09T14:41:47;3.88;;;2.65;;
37559;SDS011;23398;50.928;7.084;2023-07-09T14:44:26;4.18;;;2.80;;
37559;SDS011;23398;50.928;7.084;2023-07-09T14:46:54;8.27;;;3.15;;
37559;SDS011;23398;50.928;7.084;2023-07-09T14:49:21;4.05;;;2.60;;
37559;SDS011;23398;50.928;7.084;2023-07-09T14:51:48;9.02;;;2.70;;
37559;SDS011;23398;50.928;7.084;2023-07-09T14:54:18;4.10;;;2.97;;
37559;SDS011;23398;50.928;7.084;2023-07-09T14:56:54;5.40;;;3.10;;
37559;SDS011;23398;50.928;7.084;2023-07-09T14:59:21;6.55;;;2.90;;
37559;SDS011;23398;50.928;7.084;2023-07-09T15:01:48;5.07;;;3.13;;
37559;SDS011;23398;50.928;7.084;2023-07-09T15:04:32;5.90;;;2.92;;
37559;SDS011;23398;50.928;7.084;2023-07-09T15:06:58;3.25;;;2.78;;
37559;SDS011;23398;50.928;7.084;2023-07-09T15:09:26;4.18;;;2.60;;
37559;SDS011;23398;50.928;7.084;2023-07-09T15:11:53;2.95;;;2.65;;
37559;SDS011;23398;50.928;7.084;2023-07-09T15:14:24;7.10;;;3.00;;
37559;SDS011;23398;50.928;7.084;2023-07-09T15:16:50;4.00;;;2.60;;
37559;SDS011;23398;50.928;7.084;2023-07-09T15:19:21;6.55;;;2.58;;
37559;SDS011;23398;50.928;7.084;2023-07-09T15:21:48;5.43;;;2.67;;
37559;SDS011;23398;50.928;7.084;2023-07-09T15:24:36;2.83;;;2.28;;
37559;SDS011;23398;50.928;7.084;2023-07-09T15:27:00;3.88;;;2.58;;
37559;SDS011;23398;50.928;7.084;2023-07-09T15:29:27;4.63;;;2.38;;
37559;SDS011;23398;50.928;7.084;2023-07-09T15:31:53;4.00;;;2.25;;
37559;SDS011;23398;50.928;7.084;2023-07-09T15:34:19;3.10;;;2.35;;
37559;SDS011;23398;50.928;7.084;2023-07-09T15:36:48;3.00;;;2.58;;
37559;SDS011;23398;50.928;7.084;2023-07-09T15:39:16;4.55;;;2.65;;
37559;SDS011;23398;50.928;7.084;2023-07-09T15:41:42;3.80;;;2.83;;
37559;SDS011;23398;50.928;7.084;2023-07-09T15:44:11;4.13;;;2.70;;
37559;SDS011;23398;50.928;7.084;2023-07-09T15:46:38;4.55;;;2.92;;
37559;SDS011;23398;50.928;7.084;2023-07-09T15:49:06;3.15;;;2.85;;
37559;SDS011;23398;50.928;7.084;2023-07-09T15:51:31;4.78;;;3.05;;
37559;SDS011;23398;50.928;7.084;2023-07-09T15:53:57;5.65;;;3.22;;